createdAt,value
2019-04-01T00:01:13.022Z,102787.51
2019-04-01T00:04:33.820Z,102787.10
2019-04-01T00:08:08.826Z,102783.69
2019-04-01T00:11:23.113Z,102784.14
2019-04-01T00:14:33.440Z,102798.37
2019-04-01T00:17:46.116Z,102800.44
2019-04-01T00:25:15.266Z,102805.17
2019-04-01T00:28:21.360Z,102798.06
2019-04-01T00:31:46.780Z,102797.66
2019-04-01T00:38:34.779Z,102800.86
2019-04-01T00:42:03.028Z,102802.66
2019-04-01T00:45:13.120Z,102794.80
2019-04-01T00:52:09.147Z,102799.69
2019-04-01T00:55:31.490Z,102794.53
2019-04-01T00:58:36.430Z,102799.09
2019-04-01T01:01:41.482Z,102796.61
2019-04-01T01:05:24.458Z,102796.95
2019-04-01T01:12:47.825Z,102795.51
2019-04-01T01:15:52.428Z,102797.65
2019-04-01T01:23:15.233Z,102795.38
2019-04-01T01:26:21.345Z,102796.06
2019-04-01T01:29:45.425Z,102799.77
2019-04-01T01:45:50.306Z,102792.24
2019-04-01T01:48:57.326Z,102789.13
2019-04-01T01:52:02.382Z,102791.28
2019-04-01T01:55:13.527Z,102783.08
2019-04-01T02:02:06.112Z,102789.28
2019-04-01T02:05:10.986Z,102784.64
2019-04-01T02:08:20.694Z,102794.02
2019-04-01T02:11:25.415Z,102791.63
2019-04-01T02:14:30.502Z,102787.58
2019-04-01T02:17:35.299Z,102792.19
2019-04-01T02:20:47.419Z,102788.78
2019-04-01T02:23:58.430Z,102784.80
2019-04-01T02:27:03.820Z,102773.55
2019-04-01T02:30:11.780Z,102780.25
2019-04-01T02:33:17.964Z,102774.80
2019-04-01T02:36:22.667Z,102779.25
2019-04-01T02:39:27.702Z,102778.59
2019-04-01T02:42:56.196Z,102778.38
2019-04-01T02:46:04.289Z,102775.70
2019-04-01T02:52:35.965Z,102774.80
2019-04-01T02:56:18.451Z,102770.94
2019-04-01T02:59:28.152Z,102775.50
2019-04-01T03:02:37.997Z,102769.30
2019-04-01T03:05:43.159Z,102771.11
2019-04-01T03:09:09.552Z,102763.95
2019-04-01T03:12:25.162Z,102763.45
2019-04-01T03:15:34.563Z,102765.94
2019-04-01T03:18:39.407Z,102769.18
2019-04-01T03:21:48.633Z,102765.87
2019-04-01T03:24:56.374Z,102767.12
2019-04-01T03:28:02.949Z,102762.86
2019-04-01T03:31:11.242Z,102767.47
2019-04-01T03:34:18.757Z,102768.96
2019-04-01T03:37:23.611Z,102767.99
2019-04-01T03:40:29.652Z,102767.71
2019-04-01T03:43:34.426Z,102768.89
2019-04-01T03:46:39.604Z,102766.61
2019-04-01T03:49:45.562Z,102769.07
2019-04-01T03:57:12.193Z,102775.48
2019-04-01T04:00:20.828Z,102769.59
2019-04-01T04:03:29.195Z,102774.35
2019-04-01T04:06:34.410Z,102777.03
2019-04-01T04:09:39.169Z,102779.41
2019-04-01T04:12:43.834Z,102774.02
2019-04-01T04:15:48.117Z,102775.78
2019-04-01T04:18:52.482Z,102775.89
2019-04-01T04:21:56.722Z,102784.54
2019-04-01T04:25:00.979Z,102781.91
2019-04-01T04:28:05.235Z,102778.56
2019-04-01T04:31:09.522Z,102782.35
2019-04-01T04:34:13.799Z,102780.64
2019-04-01T04:37:18.058Z,102787.64
2019-04-01T04:40:22.499Z,102785.37
2019-04-01T04:43:26.755Z,102781.95
2019-04-01T04:46:31.020Z,102791.91
2019-04-01T04:49:35.292Z,102792.81
2019-04-01T04:52:39.546Z,102797.06
2019-04-01T04:55:43.819Z,102787.92
2019-04-01T04:58:48.088Z,102793.38
2019-04-01T05:01:52.359Z,102789.36
2019-04-01T05:04:57.654Z,102795.99
2019-04-01T05:08:01.920Z,102796.53
2019-04-01T05:11:07.046Z,102796.76
2019-04-01T05:14:11.314Z,102802.55
2019-04-01T05:17:15.892Z,102810.90
2019-04-01T05:20:20.173Z,102809.49
2019-04-01T05:23:26.387Z,102814.55
2019-04-01T05:26:33.529Z,102813.41
2019-04-01T05:29:40.525Z,102814.22
2019-04-01T05:32:48.100Z,102815.69
2019-04-01T05:35:52.474Z,102817.28
2019-04-01T05:38:57.234Z,102814.39
2019-04-01T05:42:01.648Z,102816.56
2019-04-01T05:45:07.468Z,102824.70
2019-04-01T05:48:12.864Z,102824.98
2019-04-01T05:51:17.235Z,102816.95
2019-04-01T05:54:21.466Z,102824.59
2019-04-01T05:57:28.990Z,102827.19
2019-04-01T06:00:46.529Z,102821.95
2019-04-01T06:03:50.820Z,102820.17
2019-04-01T06:06:55.078Z,102822.31
2019-04-01T06:09:59.365Z,102823.27
2019-04-01T06:13:05.147Z,102828.39
2019-04-01T06:16:09.472Z,102822.87
2019-04-01T06:19:14.043Z,102826.03
2019-04-01T06:22:18.408Z,102818.69
2019-04-01T06:25:22.793Z,102818.23
2019-04-01T06:28:27.088Z,102821.27
2019-04-01T06:31:31.351Z,102820.34
2019-04-01T06:34:35.671Z,102821.16
2019-04-01T06:37:39.995Z,102816.70
2019-04-01T06:40:44.273Z,102819.22
2019-04-01T06:43:48.928Z,102816.67
2019-04-01T06:46:53.226Z,102817.70
2019-04-01T06:49:59.854Z,102820.86
2019-04-01T06:53:04.204Z,102820.56
2019-04-01T06:56:08.487Z,102822.92
2019-04-01T06:59:16.308Z,102819.11
2019-04-01T07:02:20.772Z,102811.25
2019-04-01T07:05:25.111Z,102811.84
2019-04-01T07:08:29.378Z,102814.52
2019-04-01T07:11:33.706Z,102812.41
2019-04-01T07:14:38.078Z,102811.75
2019-04-01T07:17:43.137Z,102812.91
2019-04-01T07:20:47.412Z,102811.87
2019-04-01T07:23:51.813Z,102807.88
2019-04-01T07:26:56.210Z,102816.05
2019-04-01T07:30:00.511Z,102811.88
2019-04-01T07:33:04.765Z,102815.55
2019-04-01T07:36:09.237Z,102807.66
2019-04-01T07:39:13.595Z,102809.50
2019-04-01T07:42:17.871Z,102804.91
2019-04-01T07:45:22.144Z,102800.88
2019-04-01T07:48:26.428Z,102799.85
2019-04-01T07:51:30.683Z,102805.37
2019-04-01T07:54:35.085Z,102794.72
2019-04-01T07:57:39.397Z,102796.74
2019-04-01T08:00:43.710Z,102792.91
2019-04-01T08:03:48.516Z,102790.44
2019-04-01T08:06:52.791Z,102797.58
2019-04-01T08:09:57.101Z,102790.46
2019-04-01T08:13:01.465Z,102800.91
2019-04-01T08:16:05.760Z,102798.05
2019-04-01T08:19:11.201Z,102791.36
2019-04-01T08:22:17.617Z,102802.23
2019-04-01T08:25:21.624Z,102793.41
2019-04-01T08:28:26.118Z,102795.48
2019-04-01T08:31:30.386Z,102791.76
2019-04-01T08:34:34.726Z,102785.41
2019-04-01T08:37:40.560Z,102787.76
2019-04-01T08:40:45.046Z,102780.83
2019-04-01T08:43:49.334Z,102776.84
2019-04-01T08:46:57.012Z,102779.05
2019-04-01T08:50:01.282Z,102774.29
2019-04-01T08:53:05.539Z,102776.53
2019-04-01T08:56:12.197Z,102772.55
2019-04-01T08:59:16.775Z,102774.56
2019-04-01T09:02:21.155Z,102772.75
2019-04-01T09:05:25.493Z,102774.29
2019-04-01T09:08:29.982Z,102772.77
2019-04-01T09:11:38.057Z,102765.31
2019-04-01T09:14:40.674Z,102755.01
2019-04-01T09:17:46.694Z,102763.97
2019-04-01T09:20:50.965Z,102763.39
2019-04-01T09:23:59.869Z,102766.52
2019-04-01T09:27:09.800Z,102762.95
2019-04-01T09:30:14.177Z,102753.02
2019-04-01T09:33:18.452Z,102757.05
2019-04-01T09:36:22.799Z,102754.26
2019-04-01T09:39:28.465Z,102743.49
2019-04-01T09:42:32.746Z,102756.08
2019-04-01T09:45:37.012Z,102757.56
2019-04-01T09:48:41.288Z,102748.50
2019-04-01T09:51:48.847Z,102753.69
2019-04-01T09:54:53.042Z,102750.47
2019-04-01T09:57:57.367Z,102747.44
2019-04-01T10:01:03.495Z,102737.95
2019-04-01T10:04:07.770Z,102743.17
2019-04-01T10:07:12.250Z,102742.77
2019-04-01T10:10:19.027Z,102735.48
2019-04-01T10:13:23.728Z,102729.64
2019-04-01T10:16:28.743Z,102730.83
2019-04-01T10:19:41.681Z,102732.41
2019-04-01T10:22:49.669Z,102724.58
2019-04-01T10:26:34.030Z,102716.50
2019-04-01T10:29:59.359Z,102716.70
2019-04-01T10:33:04.887Z,102714.80
2019-04-01T10:36:30.074Z,102712.45
2019-04-01T10:39:35.048Z,102707.25
2019-04-01T10:42:39.867Z,102703.34
2019-04-01T10:45:50.791Z,102696.66
2019-04-01T10:48:58.702Z,102707.80
2019-04-01T10:52:44.195Z,102693.30
2019-04-01T10:55:49.025Z,102685.61
2019-04-01T10:58:53.734Z,102691.55
2019-04-01T11:02:01.343Z,102682.44
2019-04-01T11:05:09.394Z,102669.40
2019-04-01T11:08:19.987Z,102666.70
2019-04-01T11:12:16.219Z,102658.88
2019-04-01T11:15:22.758Z,102668.03
2019-04-01T11:18:27.725Z,102664.36
2019-04-01T11:21:33.149Z,102663.50
2019-04-01T11:24:47.683Z,102659.64
2019-04-01T11:27:52.674Z,102648.58
2019-04-01T11:31:11.386Z,102658.45
2019-04-01T11:38:27.653Z,102642.20
2019-04-01T11:41:33.025Z,102645.83
2019-04-01T11:44:38.121Z,102647.42
2019-04-01T11:47:51.191Z,102642.44
2019-04-01T11:50:57.601Z,102634.69
2019-04-01T11:54:02.452Z,102636.16
2019-04-01T11:57:07.399Z,102629.75
2019-04-01T12:00:16.956Z,102622.93
2019-04-01T12:03:29.462Z,102620.95
2019-04-01T12:06:36.442Z,102612.30
2019-04-01T12:09:52.215Z,102608.56
2019-04-01T12:12:56.605Z,102612.66
2019-04-01T12:16:03.058Z,102604.16
2019-04-01T12:19:13.622Z,102606.22
2019-04-01T12:22:26.141Z,102608.85
2019-04-01T12:25:52.429Z,102591.74
2019-04-01T12:29:02.282Z,102585.64
2019-04-01T12:32:23.463Z,102590.81
2019-04-01T12:35:27.992Z,102576.73
2019-04-01T12:38:38.992Z,102566.98
2019-04-01T12:41:44.377Z,102562.45
2019-04-01T12:45:07.909Z,102564.50
2019-04-01T12:48:29.279Z,102550.83
2019-04-01T12:51:33.885Z,102549.80
2019-04-01T12:54:41.029Z,102546.55
2019-04-01T12:57:51.405Z,102547.88
2019-04-01T13:01:05.208Z,102538.79
2019-04-01T13:04:25.079Z,102532.58
2019-04-01T13:07:30.231Z,102526.96
2019-04-01T13:10:36.905Z,102521.49
2019-04-01T13:13:41.813Z,102516.06
2019-04-01T13:17:05.142Z,102518.64
2019-04-01T13:20:21.298Z,102506.72
2019-04-01T13:23:36.087Z,102506.80
2019-04-01T13:27:19.659Z,102513.77
2019-04-01T13:30:33.770Z,102508.18
2019-04-01T13:33:49.748Z,102501.59
2019-04-01T13:36:54.136Z,102491.43
2019-04-01T13:43:36.036Z,102481.20
2019-04-01T13:50:53.792Z,102483.53
2019-04-01T13:54:12.464Z,102469.91
2019-04-01T13:57:43.816Z,102454.91
2019-04-01T14:00:49.796Z,102457.27
2019-04-01T14:03:54.358Z,102455.95
2019-04-01T14:07:05.355Z,102443.80
2019-04-01T14:10:41.128Z,102452.98
2019-04-01T14:14:58.966Z,102442.69
2019-04-01T14:17:42.937Z,102438.78
2019-04-01T14:20:50.463Z,102433.12
2019-04-01T14:24:20.688Z,102420.91
2019-04-01T14:28:12.303Z,102421.27
2019-04-01T14:35:36.043Z,102402.92
2019-04-01T14:38:59.162Z,102393.55
2019-04-01T14:42:20.452Z,102389.19
2019-04-01T14:45:45.251Z,102385.59
2019-04-01T14:53:31.555Z,102374.94
2019-04-01T14:57:05.600Z,102360.05
2019-04-01T15:00:20.728Z,102358.31
2019-04-01T15:03:27.380Z,102356.85
2019-04-01T15:18:18.691Z,102338.64
2019-04-01T15:21:34.748Z,102329.41
2019-04-01T15:28:10.164Z,102317.71
2019-04-01T15:31:17.368Z,102307.47
2019-04-01T15:34:22.090Z,102306.53
2019-04-01T15:37:27.009Z,102302.50
2019-04-01T15:40:33.380Z,102305.80
2019-04-01T15:43:43.882Z,102296.38
2019-04-01T15:47:18.897Z,102281.19
2019-04-01T15:50:28.752Z,102268.08
2019-04-01T15:53:30.227Z,102263.56
2019-04-01T15:56:35.025Z,102264.50
2019-04-01T15:59:40.223Z,102258.20
2019-04-01T16:02:47.974Z,102247.02
2019-04-01T16:05:55.421Z,102239.02
2019-04-01T16:09:00.307Z,102239.36
2019-04-01T16:12:05.446Z,102238.41
2019-04-01T16:15:09.884Z,102230.33
2019-04-01T16:18:14.142Z,102231.80
2019-04-01T16:21:18.473Z,102226.47
2019-04-01T16:24:22.751Z,102217.66
2019-04-01T16:27:32.877Z,102211.85
2019-04-01T16:30:37.162Z,102210.34
2019-04-01T16:33:41.460Z,102205.32
2019-04-01T16:36:45.735Z,102200.56
2019-04-01T16:39:54.562Z,102201.42
2019-04-01T16:42:58.446Z,102197.02
2019-04-01T16:46:02.823Z,102191.06
2019-04-01T16:49:07.727Z,102190.41
2019-04-01T16:52:15.322Z,102182.59
2019-04-01T16:55:18.692Z,102184.06
2019-04-01T16:58:24.842Z,102179.81
2019-04-01T17:01:29.104Z,102184.17
2019-04-01T17:04:33.421Z,102185.86
2019-04-01T17:07:37.714Z,102181.95
2019-04-01T17:10:41.985Z,102171.70
2019-04-01T17:13:46.293Z,102168.55
2019-04-01T17:16:50.727Z,102160.64
2019-04-01T17:19:54.985Z,102148.36
2019-04-01T17:23:01.443Z,102149.46
2019-04-01T17:26:05.882Z,102147.71
2019-04-01T17:29:10.212Z,102151.98
2019-04-01T17:32:14.747Z,102147.12
2019-04-01T17:35:19.035Z,102156.09
2019-04-01T17:38:23.326Z,102155.91
2019-04-01T17:41:29.467Z,102157.28
2019-04-01T17:44:33.765Z,102165.08
2019-04-01T17:47:38.090Z,102156.80
2019-04-01T17:50:42.406Z,102156.25
2019-04-01T17:53:46.808Z,102149.13
2019-04-01T17:56:51.117Z,102153.53
2019-04-01T17:59:55.436Z,102146.45
2019-04-01T18:03:00.114Z,102151.58
2019-04-01T18:06:04.550Z,102142.66
2019-04-01T18:09:09.038Z,102141.31
2019-04-01T18:12:13.351Z,102142.70
2019-04-01T18:15:20.568Z,102146.19
2019-04-01T18:18:27.598Z,102145.09
2019-04-01T18:21:32.379Z,102143.90
2019-04-01T18:24:36.847Z,102144.10
2019-04-01T18:27:41.149Z,102147.42
2019-04-01T18:30:45.560Z,102143.88
2019-04-01T18:33:55.977Z,102137.09
2019-04-01T18:36:55.934Z,102140.06
2019-04-01T18:40:00.311Z,102135.92
2019-04-01T18:43:04.745Z,102143.41
2019-04-01T18:46:09.120Z,102135.53
2019-04-01T18:49:13.487Z,102138.89
2019-04-01T18:52:17.851Z,102140.56
2019-04-01T18:55:22.243Z,102141.30
2019-04-01T18:58:26.619Z,102137.53
2019-04-01T19:01:31.155Z,102135.84
2019-04-01T19:04:35.470Z,102130.38
2019-04-01T19:07:39.813Z,102133.41
2019-04-01T19:10:44.292Z,102125.09
2019-04-01T19:13:51.715Z,102129.20
2019-04-01T19:16:56.103Z,102130.36
2019-04-01T19:20:00.480Z,102128.84
2019-04-01T19:23:06.938Z,102118.08
2019-04-01T19:26:11.439Z,102121.25
2019-04-01T19:29:16.200Z,102111.47
2019-04-01T19:32:20.842Z,102112.94
2019-04-01T19:35:26.586Z,102114.55
2019-04-01T19:38:30.955Z,102100.44
2019-04-01T19:41:35.336Z,102103.27
2019-04-01T19:44:39.716Z,102099.61
2019-04-01T19:47:46.822Z,102088.09
2019-04-01T19:50:51.206Z,102086.26
2019-04-01T19:53:55.625Z,102081.97
2019-04-01T19:57:02.842Z,102077.82
2019-04-01T20:00:09.142Z,102086.67
2019-04-01T20:03:13.517Z,102069.70
2019-04-01T20:06:18.524Z,102066.52
2019-04-01T20:09:24.277Z,102074.02
2019-04-01T20:12:28.719Z,102066.72
2019-04-01T20:15:33.008Z,102071.05
2019-04-01T20:18:37.311Z,102071.94
2019-04-01T20:21:41.611Z,102072.39
2019-04-01T20:24:45.982Z,102065.25
2019-04-01T20:27:50.420Z,102071.03
2019-04-01T20:30:56.514Z,102064.88
2019-04-01T20:34:00.928Z,102059.44
2019-04-01T20:37:06.085Z,102054.45
2019-04-01T20:40:10.373Z,102053.11
2019-04-01T20:43:15.364Z,102047.34
2019-04-01T20:46:19.936Z,102043.37
2019-04-01T20:49:24.218Z,102035.98
2019-04-01T20:52:28.497Z,102032.95
2019-04-01T20:55:32.766Z,102027.39
2019-04-01T20:58:37.167Z,102027.50
2019-04-01T21:01:41.434Z,102023.33
2019-04-01T21:04:45.695Z,102022.14
2019-04-01T21:07:49.963Z,102018.46
2019-04-01T21:10:54.264Z,102014.13
2019-04-01T21:13:58.688Z,102016.13
2019-04-01T21:17:02.977Z,102015.31
2019-04-01T21:20:09.208Z,102012.19
2019-04-01T21:23:13.498Z,102004.53
2019-04-01T21:26:17.805Z,101999.81
2019-04-01T21:29:22.852Z,101995.38
2019-04-01T21:32:30.235Z,101997.39
2019-04-01T21:35:40.734Z,101984.63
2019-04-01T21:38:45.021Z,101985.33
2019-04-01T21:41:49.315Z,101979.86
2019-04-01T21:44:54.781Z,101977.89
2019-04-01T21:47:59.133Z,101971.91
2019-04-01T21:51:04.141Z,101970.30
2019-04-01T21:54:08.650Z,101960.73
2019-04-01T21:57:12.979Z,101961.05
2019-04-01T22:00:27.482Z,101957.48
2019-04-01T22:03:31.751Z,101951.47
2019-04-01T22:06:38.713Z,101949.39
2019-04-01T22:09:42.947Z,101947.46
2019-04-01T22:12:47.180Z,101941.44
2019-04-01T22:15:52.155Z,101934.13
2019-04-01T22:27:40.774Z,101920.69
2019-04-01T22:30:46.038Z,101910.95
2019-04-01T22:37:49.161Z,101906.73
2019-04-01T22:40:54.021Z,101902.13
2019-04-01T22:43:58.933Z,101898.47
2019-04-01T22:47:17.685Z,101894.06
2019-04-01T22:50:50.379Z,101890.57
2019-04-01T22:54:00.101Z,101881.36
2019-04-01T22:57:51.238Z,101878.78
2019-04-01T23:00:56.205Z,101879.91
2019-04-01T23:04:02.273Z,101863.98
2019-04-01T23:07:13.113Z,101866.50
2019-04-01T23:10:22.431Z,101852.64
2019-04-01T23:13:24.613Z,101856.19
2019-04-01T23:16:48.111Z,101851.56
2019-04-01T23:20:04.086Z,101849.61
2019-04-01T23:23:16.347Z,101839.20
2019-04-01T23:26:28.915Z,101842.61
2019-04-01T23:29:55.471Z,101841.88
2019-04-01T23:33:06.308Z,101835.50
2019-04-01T23:36:18.988Z,101825.44
2019-04-01T23:39:25.443Z,101824.92
2019-04-01T23:43:14.235Z,101821.79
2019-04-01T23:46:20.061Z,101823.58
2019-04-01T23:49:24.982Z,101816.80
2019-04-01T23:52:31.551Z,101799.87
2019-04-01T23:56:01.944Z,101802.39
2019-04-01T23:59:06.786Z,101797.88
